Time;durP1;ratioP1;P1;durP2;ratioP2;P2;SDS_P1;SDS_P2;PMS_P1;PMS_P2;Temp;Humidity;BMP_temperature;BMP_pressure;BME280_temperature;BME280_humidity;BME280_pressure;Samples;Min_cycle;Max_cycle;Signal;HPM_P1;HPM_P2
2022/12/19 00:01:52;;;;;;;;;;;-5.60;99.90;;;;;;5053641;28;19951;-68
2022/12/19 00:04:18;;;;;;;;;;;-5.60;99.90;;;;;;5052241;28;19921;-69
2022/12/19 00:06:44;;;;;;;;;;;-5.60;99.90;;;;;;5053522;28;19920;-68
2022/12/19 00:09:10;;;;;;;;;;;-5.50;99.90;;;;;;5053601;28;19909;-68
2022/12/19 00:11:37;;;;;;;;;;;-5.50;99.90;;;;;;5053533;28;20395;-69
2022/12/19 00:14:06;;;;;;;;;;;-5.50;99.90;;;;;;5053590;28;19913;-69
2022/12/19 00:16:31;;;;;;;;;;;-5.40;99.90;;;;;;5053485;28;20041;-69
2022/12/19 00:18:58;;;;;;;;;;;-5.40;99.90;;;;;;5053527;28;20003;-69
2022/12/19 00:21:25;;;;;;;;;;;-5.40;99.90;;;;;;5053547;28;20003;-68
2022/12/19 00:23:51;;;;;;;;;;;-5.40;99.90;;;;;;5053401;28;19952;-69
2022/12/19 00:26:30;;;;;;;;;;;-5.30;99.90;;;;;;5053423;28;19908;-68
2022/12/19 00:28:57;;;;;;;;;;;-5.30;99.90;;;;;;5053395;28;20008;-69
2022/12/19 00:31:23;;;;;;;;;;;-5.30;99.90;;;;;;5053671;28;19915;-69
2022/12/19 00:33:49;;;;;;;;;;;-5.20;99.90;;;;;;5053365;28;20356;-69
2022/12/19 00:36:19;;;;;;;;;;;-5.20;99.90;;;;;;5053259;28;19916;-68
2022/12/19 00:38:45;;;;;;;;;;;-5.20;99.90;;;;;;5053410;28;19948;-68
2022/12/19 00:41:13;;;;;;;;;;;-5.20;99.90;;;;;;5053264;28;19912;-69
2022/12/19 00:43:39;;;;;;;;;;;-5.20;99.90;;;;;;5053206;28;20443;-69
2022/12/19 00:46:07;;;;;;;;;;;-5.20;99.90;;;;;;5051990;28;19944;-69
2022/12/19 00:48:32;;;;;;;;;;;-5.30;99.90;;;;;;5053264;28;19909;-69
2022/12/19 00:51:09;;;;;;;;;;;-5.30;99.90;;;;;;5053259;28;19936;-69
2022/12/19 00:53:34;;;;;;;;;;;-5.30;99.90;;;;;;5053318;28;19908;-69
2022/12/19 00:56:01;;;;;;;;;;;-5.30;99.90;;;;;;5053129;28;19962;-69
2022/12/19 00:58:27;;;;;;;;;;;-5.20;99.90;;;;;;5057292;28;20272;-69
2022/12/19 01:00:52;;;;;;;;;;;-5.20;99.90;;;;;;5056856;28;19915;-69
2022/12/19 01:03:18;;;;;;;;;;;-5.20;99.90;;;;;;5055419;28;19913;-70
2022/12/19 01:05:43;;;;;;;;;;;-5.20;99.90;;;;;;5056724;28;19943;-69
2022/12/19 01:08:09;;;;;;;;;;;-5.20;99.90;;;;;;5055541;28;20280;-69
2022/12/19 01:10:34;;;;;;;;;;;-5.20;99.90;;;;;;5056584;28;20287;-69
2022/12/19 01:13:00;;;;;;;;;;;-5.20;99.90;;;;;;5055458;28;19956;-68
2022/12/19 01:15:25;;;;;;;;;;;-5.20;99.90;;;;;;5056469;28;19917;-70
2022/12/19 01:17:51;;;;;;;;;;;-5.20;99.90;;;;;;5055252;28;19975;-69
2022/12/19 01:20:18;;;;;;;;;;;-5.20;99.90;;;;;;5055741;28;19948;-69
2022/12/19 01:22:44;;;;;;;;;;;-5.10;99.90;;;;;;5056698;28;19932;-69
2022/12/19 01:25:10;;;;;;;;;;;-5.10;99.90;;;;;;5056250;28;19913;-69
2022/12/19 01:27:36;;;;;;;;;;;-5.00;99.90;;;;;;5049783;28;19982;-69
2022/12/19 01:30:03;;;;;;;;;;;-5.00;99.90;;;;;;5056150;28;20365;-69
2022/12/19 01:32:28;;;;;;;;;;;-4.90;99.90;;;;;;5055322;28;20430;-69
2022/12/19 01:34:54;;;;;;;;;;;-4.90;99.90;;;;;;5056108;28;19909;-69
2022/12/19 01:37:20;;;;;;;;;;;-4.90;99.90;;;;;;5055741;28;19913;-69
2022/12/19 01:39:45;;;;;;;;;;;-4.80;99.90;;;;;;5055987;28;19924;-69
2022/12/19 01:42:13;;;;;;;;;;;-4.80;99.90;;;;;;5054988;28;20007;-71
2022/12/19 01:44:39;;;;;;;;;;;-4.70;99.90;;;;;;5055544;28;19963;-69
2022/12/19 01:47:07;;;;;;;;;;;-4.70;99.90;;;;;;5055698;28;19909;-69
2022/12/19 01:49:34;;;;;;;;;;;-4.70;99.90;;;;;;5055744;28;20023;-69
2022/12/19 01:52:05;;;;;;;;;;;-4.70;99.90;;;;;;5055760;28;19916;-69
2022/12/19 01:54:32;;;;;;;;;;;-4.70;99.90;;;;;;5055923;28;20023;-69
2022/12/19 01:56:59;;;;;;;;;;;-4.60;99.90;;;;;;5055642;28;20262;-69
2022/12/19 01:59:27;;;;;;;;;;;-4.60;99.90;;;;;;5055300;28;20003;-69
2022/12/19 02:02:01;;;;;;;;;;;-4.60;99.90;;;;;;5055540;28;19916;-69
2022/12/19 02:04:26;;;;;;;;;;;-4.60;99.90;;;;;;5055419;28;19931;-69
2022/12/19 02:06:53;;;;;;;;;;;-4.60;99.90;;;;;;5055180;28;19913;-69
2022/12/19 02:09:19;;;;;;;;;;;-4.60;99.90;;;;;;5054677;28;20284;-69
2022/12/19 02:11:45;;;;;;;;;;;-4.60;99.90;;;;;;5055328;28;19913;-69
2022/12/19 02:14:10;;;;;;;;;;;-4.50;99.90;;;;;;5054884;28;19951;-69
2022/12/19 02:16:41;;;;;;;;;;;-4.60;99.90;;;;;;5055175;28;19917;-69
2022/12/19 02:19:25;;;;;;;;;;;-4.50;99.90;;;;;;5063259;22;19925;-81
2022/12/19 02:22:08;;;;;;;;;;;-4.50;99.90;;;;;;5056915;28;19935;-81
2022/12/19 02:24:52;;;;;;;;;;;-4.50;99.90;;;;;;5056931;28;19960;-81
2022/12/19 02:27:29;;;;;;;;;;;-4.50;99.90;;;;;;5058783;28;19909;-81
2022/12/19 02:30:06;;;;;;;;;;;-4.50;99.90;;;;;;5057299;28;19916;-81
2022/12/19 02:32:36;;;;;;;;;;;-4.40;99.90;;;;;;5058410;28;19980;-81
2022/12/19 02:35:06;;;;;;;;;;;-4.40;99.90;;;;;;5057863;28;19908;-81
2022/12/19 02:37:40;;;;;;;;;;;-4.40;99.90;;;;;;5058731;28;19916;-81
2022/12/19 02:40:09;;;;;;;;;;;-4.40;99.90;;;;;;5058624;28;19962;-81
2022/12/19 02:42:39;;;;;;;;;;;-4.40;99.90;;;;;;5058326;28;19999;-81
2022/12/19 02:45:06;;;;;;;;;;;-4.30;99.90;;;;;;5057303;28;20376;-81
2022/12/19 02:47:33;;;;;;;;;;;-4.30;99.90;;;;;;5043329;28;19909;-81
2022/12/19 02:49:58;;;;;;;;;;;-4.30;99.90;;;;;;5055238;28;19920;-81
2022/12/19 02:52:24;;;;;;;;;;;-4.20;99.90;;;;;;5056698;28;19913;-81
2022/12/19 02:54:50;;;;;;;;;;;-4.20;99.90;;;;;;5047265;28;19909;-80
2022/12/19 02:57:30;;;;;;;;;;;-4.20;99.90;;;;;;5057343;28;19916;-81
2022/12/19 02:59:56;;;;;;;;;;;-4.20;99.90;;;;;;5056113;28;19909;-81
2022/12/19 03:02:32;;;;;;;;;;;-4.20;99.90;;;;;;5056974;28;20277;-81
2022/12/19 03:04:58;;;;;;;;;;;-4.20;99.90;;;;;;5057484;28;19913;-81
2022/12/19 03:07:23;;;;;;;;;;;-4.20;99.90;;;;;;5057589;28;19932;-81
2022/12/19 03:10:04;;;;;;;;;;;-4.20;99.90;;;;;;5057254;28;19958;-81
2022/12/19 03:12:33;;;;;;;;;;;-4.20;99.90;;;;;;5057339;28;19931;-81
2022/12/19 03:14:58;;;;;;;;;;;-4.10;99.90;;;;;;5056162;28;19923;-81
2022/12/19 03:17:25;;;;;;;;;;;-4.10;99.90;;;;;;5057079;28;19909;-79
2022/12/19 03:19:50;;;;;;;;;;;-4.10;99.90;;;;;;5056792;28;20426;-81
2022/12/19 03:22:16;;;;;;;;;;;-4.20;99.90;;;;;;5057121;28;19908;-80
2022/12/19 03:24:41;;;;;;;;;;;-4.10;99.90;;;;;;5056226;28;19963;-80
2022/12/19 03:27:10;;;;;;;;;;;-4.20;99.90;;;;;;5038793;28;19920;-80
2022/12/19 03:29:45;;;;;;;;;;;-4.20;99.90;;;;;;5054804;28;19908;-79
2022/12/19 03:32:12;;;;;;;;;;;-4.20;99.90;;;;;;5055483;28;20431;-80
2022/12/19 03:34:45;;;;;;;;;;;-4.20;99.90;;;;;;5054362;28;19931;-81
2022/12/19 03:37:13;;;;;;;;;;;-4.20;99.90;;;;;;5056804;28;19913;-80
2022/12/19 03:39:40;;;;;;;;;;;-4.20;99.90;;;;;;5056245;28;20376;-81
2022/12/19 03:44:52;;;;;;;;;;;-4.20;99.90;;;;;;5057034;28;20402;-81
2022/12/19 03:47:20;;;;;;;;;;;-4.10;99.90;;;;;;5056045;28;19912;-80
2022/12/19 03:49:46;;;;;;;;;;;-4.10;99.90;;;;;;5045465;28;19935;-81
2022/12/19 03:52:18;;;;;;;;;;;-4.10;99.90;;;;;;5036881;28;19963;-81
2022/12/19 03:54:55;;;;;;;;;;;-4.10;99.90;;;;;;5035788;28;20319;-81
2022/12/19 03:57:25;;;;;;;;;;;-4.10;99.90;;;;;;5036933;28;19909;-81
2022/12/19 03:59:58;;;;;;;;;;;-4.00;99.90;;;;;;5037293;28;20387;-81
2022/12/19 04:02:23;;;;;;;;;;;-4.00;99.90;;;;;;5037592;28;19909;-80
2022/12/19 04:04:51;;;;;;;;;;;-4.00;99.90;;;;;;5051656;28;20277;-80
2022/12/19 04:07:17;;;;;;;;;;;-4.00;99.90;;;;;;5041183;28;19916;-80
2022/12/19 04:09:44;;;;;;;;;;;-4.00;99.90;;;;;;5057283;28;19913;-81
2022/12/19 04:12:20;;;;;;;;;;;-4.00;99.90;;;;;;5060937;28;19948;-80
2022/12/19 04:14:46;;;;;;;;;;;-4.00;99.90;;;;;;5055095;28;19919;-80
2022/12/19 04:17:20;;;;;;;;;;;-4.00;99.90;;;;;;5054125;28;20299;-80
2022/12/19 04:20:08;;;;;;;;;;;-4.00;99.90;;;;;;5055154;28;19923;-80
2022/12/19 04:22:36;;;;;;;;;;;-4.00;99.90;;;;;;5056188;28;19916;-79
2022/12/19 04:25:02;;;;;;;;;;;-4.00;99.90;;;;;;5055242;28;19916;-79
2022/12/19 04:27:28;;;;;;;;;;;-3.90;99.90;;;;;;5052787;28;19916;-79
2022/12/19 04:29:54;;;;;;;;;;;-3.90;99.90;;;;;;5056473;28;20322;-79
2022/12/19 04:32:21;;;;;;;;;;;-3.90;99.90;;;;;;5057954;28;19920;-79
2022/12/19 04:34:47;;;;;;;;;;;-3.90;99.90;;;;;;5058091;28;19944;-80
2022/12/19 04:37:12;;;;;;;;;;;-3.90;99.90;;;;;;5058394;28;19920;-79
2022/12/19 04:39:38;;;;;;;;;;;-3.90;99.90;;;;;;5060288;28;19917;-78
2022/12/19 04:42:03;;;;;;;;;;;-3.90;99.90;;;;;;5058376;28;19908;-79
2022/12/19 04:44:29;;;;;;;;;;;-3.90;99.90;;;;;;5058244;28;19959;-78
2022/12/19 04:46:54;;;;;;;;;;;-3.90;99.90;;;;;;5063113;28;19913;-80
2022/12/19 04:49:20;;;;;;;;;;;-3.90;99.90;;;;;;5058112;28;19959;-79
2022/12/19 04:51:46;;;;;;;;;;;-3.90;99.90;;;;;;5040332;28;19909;-79
2022/12/19 04:54:11;;;;;;;;;;;-3.90;99.90;;;;;;5045519;28;20238;-80
2022/12/19 04:56:37;;;;;;;;;;;-3.80;99.90;;;;;;5027482;28;20431;-79
2022/12/19 04:59:03;;;;;;;;;;;-3.80;99.90;;;;;;5041858;28;19913;-79
2022/12/19 05:01:28;;;;;;;;;;;-3.80;99.90;;;;;;5042722;28;19909;-80
2022/12/19 05:03:54;;;;;;;;;;;-3.80;99.90;;;;;;5057926;28;19932;-80
2022/12/19 05:06:20;;;;;;;;;;;-3.80;99.90;;;;;;5062495;28;19917;-80
2022/12/19 05:08:45;;;;;;;;;;;-3.80;99.90;;;;;;5063971;28;19924;-80
2022/12/19 05:11:12;;;;;;;;;;;-3.80;99.90;;;;;;5045780;28;19916;-79
2022/12/19 05:13:37;;;;;;;;;;;-3.80;99.90;;;;;;5054422;28;20003;-78
2022/12/19 05:16:04;;;;;;;;;;;-3.80;99.90;;;;;;5055750;28;19944;-78
2022/12/19 05:18:30;;;;;;;;;;;-3.70;99.90;;;;;;5056399;28;19923;-79
2022/12/19 05:20:56;;;;;;;;;;;-3.80;99.90;;;;;;5059507;28;19960;-78
2022/12/19 05:23:22;;;;;;;;;;;-3.70;99.90;;;;;;5058099;28;19970;-78
2022/12/19 05:25:47;;;;;;;;;;;-3.70;99.90;;;;;;5058111;28;19912;-78
2022/12/19 05:28:13;;;;;;;;;;;-3.70;99.90;;;;;;5057886;28;19916;-78
2022/12/19 05:30:39;;;;;;;;;;;-3.70;99.90;;;;;;5056058;28;19909;-78
2022/12/19 05:33:05;;;;;;;;;;;-3.70;99.90;;;;;;5057085;28;19909;-78
2022/12/19 05:35:32;;;;;;;;;;;-3.70;99.90;;;;;;5057467;28;19913;-78
2022/12/19 05:37:57;;;;;;;;;;;-3.70;99.90;;;;;;5057423;28;19909;-78
2022/12/19 05:40:23;;;;;;;;;;;-3.70;99.90;;;;;;5057322;28;19920;-78
2022/12/19 05:42:49;;;;;;;;;;;-3.70;99.90;;;;;;5054408;28;19913;-78
2022/12/19 05:45:14;;;;;;;;;;;-3.60;99.90;;;;;;5055707;28;19917;-78
2022/12/19 05:47:42;;;;;;;;;;;-3.60;99.90;;;;;;5056850;28;19919;-78
2022/12/19 05:50:08;;;;;;;;;;;-3.70;99.90;;;;;;5056533;28;19997;-78
2022/12/19 05:52:34;;;;;;;;;;;-3.70;99.90;;;;;;5057403;28;19941;-78
2022/12/19 05:54:59;;;;;;;;;;;-3.60;99.90;;;;;;5055769;28;19952;-78
2022/12/19 05:57:25;;;;;;;;;;;-3.70;99.90;;;;;;5057095;28;19920;-78
2022/12/19 05:59:50;;;;;;;;;;;-3.60;99.90;;;;;;5038914;28;19917;-78
2022/12/19 06:02:16;;;;;;;;;;;-3.60;99.90;;;;;;5057363;28;19913;-78
2022/12/19 06:04:41;;;;;;;;;;;-3.50;99.90;;;;;;5056431;28;19916;-79
2022/12/19 06:07:07;;;;;;;;;;;-3.50;99.90;;;;;;5056961;28;19998;-78
2022/12/19 06:09:33;;;;;;;;;;;-3.50;99.90;;;;;;5056488;28;19916;-78
2022/12/19 06:11:58;;;;;;;;;;;-3.50;99.90;;;;;;5055557;28;19913;-78
2022/12/19 06:14:24;;;;;;;;;;;-3.50;99.90;;;;;;5055345;28;19913;-78
2022/12/19 06:16:49;;;;;;;;;;;-3.40;99.90;;;;;;5056485;28;19917;-78
2022/12/19 06:19:15;;;;;;;;;;;-3.40;99.90;;;;;;5056513;28;19921;-78
2022/12/19 06:21:40;;;;;;;;;;;-3.40;99.90;;;;;;5056465;28;19935;-79
2022/12/19 06:24:06;;;;;;;;;;;-3.40;99.90;;;;;;5055872;28;19916;-78
2022/12/19 06:26:32;;;;;;;;;;;-3.40;99.90;;;;;;5056447;28;19941;-78
2022/12/19 06:28:57;;;;;;;;;;;-3.40;99.90;;;;;;5055039;28;20007;-78
2022/12/19 06:31:23;;;;;;;;;;;-3.40;99.90;;;;;;5056044;28;19916;-78
2022/12/19 06:33:49;;;;;;;;;;;-3.40;99.90;;;;;;5056440;28;19909;-78
2022/12/19 06:36:17;;;;;;;;;;;-3.30;99.90;;;;;;5055021;28;19936;-78
2022/12/19 06:38:43;;;;;;;;;;;-3.30;99.90;;;;;;5051357;28;19909;-79
2022/12/19 06:43:55;;;;;;;;;;;-3.30;99.90;;;;;;5055413;28;19924;-78
2022/12/19 06:46:21;;;;;;;;;;;-3.30;99.90;;;;;;5041212;28;20050;-78
2022/12/19 06:48:46;;;;;;;;;;;-3.30;99.90;;;;;;5055339;28;19945;-79
2022/12/19 06:51:12;;;;;;;;;;;-3.30;99.90;;;;;;5054605;28;19979;-78
2022/12/19 06:53:37;;;;;;;;;;;-3.30;99.90;;;;;;5053316;28;19913;-79
2022/12/19 06:56:03;;;;;;;;;;;-3.20;99.90;;;;;;5054053;28;19952;-79
2022/12/19 06:58:29;;;;;;;;;;;-3.30;99.90;;;;;;5036286;28;19966;-78
2022/12/19 07:00:55;;;;;;;;;;;-3.20;99.90;;;;;;5055731;28;19909;-78
2022/12/19 07:03:22;;;;;;;;;;;-3.20;99.90;;;;;;5055873;28;19959;-78
2022/12/19 07:05:47;;;;;;;;;;;-3.20;99.90;;;;;;5055431;28;19919;-78
2022/12/19 07:08:13;;;;;;;;;;;-3.20;99.90;;;;;;5038070;28;19913;-78
2022/12/19 07:10:38;;;;;;;;;;;-3.20;99.90;;;;;;5055118;28;19913;-78
2022/12/19 07:13:04;;;;;;;;;;;-3.20;99.90;;;;;;5055681;28;19913;-78
2022/12/19 07:15:30;;;;;;;;;;;-3.20;99.90;;;;;;5055562;28;19909;-78
2022/12/19 07:17:57;;;;;;;;;;;-3.10;99.90;;;;;;5054018;28;19909;-79
2022/12/19 07:20:23;;;;;;;;;;;-3.10;99.90;;;;;;5053990;28;20007;-79
2022/12/19 07:22:49;;;;;;;;;;;-3.10;99.90;;;;;;5055721;28;19950;-78
2022/12/19 07:25:16;;;;;;;;;;;-3.00;99.90;;;;;;5052461;28;20352;-78
2022/12/19 07:27:43;;;;;;;;;;;-3.00;99.90;;;;;;5055174;28;19920;-81
2022/12/19 07:30:09;;;;;;;;;;;-2.90;99.90;;;;;;5054524;28;20382;-80
2022/12/19 07:32:34;;;;;;;;;;;-2.90;99.90;;;;;;5056051;28;20027;-80
2022/12/19 07:35:00;;;;;;;;;;;-2.80;99.90;;;;;;5053862;28;19909;-80
2022/12/19 07:37:25;;;;;;;;;;;-2.80;99.90;;;;;;5054016;28;19933;-80
2022/12/19 07:39:51;;;;;;;;;;;-2.80;99.90;;;;;;5053957;28;19917;-80
2022/12/19 07:42:17;;;;;;;;;;;-2.70;99.90;;;;;;5056560;28;19920;-80
2022/12/19 07:44:43;;;;;;;;;;;-2.70;99.90;;;;;;5055898;28;20368;-80
2022/12/19 07:47:08;;;;;;;;;;;-2.70;99.90;;;;;;5052533;28;19956;-80
2022/12/19 07:49:34;;;;;;;;;;;-2.60;99.90;;;;;;5027496;28;19913;-80
2022/12/19 07:51:59;;;;;;;;;;;-2.60;99.90;;;;;;5055697;28;19920;-80
2022/12/19 07:54:25;;;;;;;;;;;-2.50;99.90;;;;;;5055823;28;20011;-80
2022/12/19 07:56:50;;;;;;;;;;;-2.50;99.90;;;;;;5055256;28;19929;-80
2022/12/19 07:59:16;;;;;;;;;;;-2.40;99.90;;;;;;5054700;28;19923;-80
2022/12/19 08:01:41;;;;;;;;;;;-2.40;99.90;;;;;;5057366;28;20363;-81
2022/12/19 08:04:07;;;;;;;;;;;-2.30;99.90;;;;;;5054829;28;19921;-80
2022/12/19 08:06:33;;;;;;;;;;;-2.30;99.90;;;;;;5059017;28;19912;-81
2022/12/19 08:08:58;;;;;;;;;;;-2.20;99.90;;;;;;5059687;28;19920;-81
2022/12/19 08:11:28;;;;;;;;;;;-2.20;99.90;;;;;;5058786;28;19917;-81
2022/12/19 08:13:54;;;;;;;;;;;-2.10;99.90;;;;;;5059040;28;19912;-80
2022/12/19 08:16:20;;;;;;;;;;;-2.10;99.90;;;;;;5057213;28;19908;-80
2022/12/19 08:18:46;;;;;;;;;;;-2.10;99.90;;;;;;5060167;28;19920;-80
2022/12/19 08:21:12;;;;;;;;;;;-2.00;99.90;;;;;;5054220;28;19916;-80
2022/12/19 08:23:38;;;;;;;;;;;-2.00;99.90;;;;;;5056306;28;19909;-81
2022/12/19 08:26:09;;;;;;;;;;;-1.90;99.90;;;;;;5058351;28;19948;-80
2022/12/19 08:28:35;;;;;;;;;;;-1.90;99.90;;;;;;5058422;28;19916;-80
2022/12/19 08:31:08;;;;;;;;;;;-1.80;99.90;;;;;;5056382;28;20004;-80
2022/12/19 08:33:35;;;;;;;;;;;-1.80;99.90;;;;;;5057809;28;19909;-80
2022/12/19 08:36:04;;;;;;;;;;;-1.70;99.90;;;;;;5057063;28;19930;-80
2022/12/19 08:38:30;;;;;;;;;;;-1.70;99.90;;;;;;5057971;28;19920;-80
2022/12/19 08:40:56;;;;;;;;;;;-1.70;99.90;;;;;;5058442;28;19912;-80
2022/12/19 08:43:21;;;;;;;;;;;-1.70;99.90;;;;;;5055994;28;19916;-81
2022/12/19 08:45:50;;;;;;;;;;;-1.70;99.90;;;;;;5057099;28;20007;-80
2022/12/19 08:48:16;;;;;;;;;;;-1.70;99.90;;;;;;5057072;28;19913;-80
2022/12/19 08:50:57;;;;;;;;;;;-1.60;99.90;;;;;;5057855;28;20016;-80
2022/12/19 08:53:24;;;;;;;;;;;-1.60;99.90;;;;;;5056998;28;19916;-80
2022/12/19 08:56:01;;;;;;;;;;;-1.60;99.90;;;;;;5058437;28;19909;-80
2022/12/19 08:58:27;;;;;;;;;;;-1.50;99.90;;;;;;5058618;28;19908;-81
2022/12/19 09:00:54;;;;;;;;;;;-1.50;99.90;;;;;;5057841;28;19920;-81
2022/12/19 09:03:21;;;;;;;;;;;-1.40;99.90;;;;;;5057132;28;19913;-81
2022/12/19 09:05:54;;;;;;;;;;;-1.40;99.90;;;;;;5057572;28;19980;-80
2022/12/19 09:08:19;;;;;;;;;;;-1.30;99.90;;;;;;5056688;28;19913;-80
2022/12/19 09:10:45;;;;;;;;;;;-1.20;99.90;;;;;;5038214;28;19921;-80
2022/12/19 09:13:11;;;;;;;;;;;-1.10;99.90;;;;;;5056663;28;19948;-81
2022/12/19 09:15:36;;;;;;;;;;;-1.10;99.90;;;;;;5039774;28;19913;-80
2022/12/19 09:18:02;;;;;;;;;;;-1.00;99.90;;;;;;5057122;28;20462;-80
2022/12/19 09:20:27;;;;;;;;;;;-1.00;99.90;;;;;;5055908;28;20415;-80
2022/12/19 09:22:53;;;;;;;;;;;-1.00;99.90;;;;;;5039375;28;19919;-80
2022/12/19 09:25:18;;;;;;;;;;;-0.90;99.90;;;;;;5057310;28;20003;-81
2022/12/19 09:27:44;;;;;;;;;;;-0.80;99.90;;;;;;5057507;28;20011;-80
2022/12/19 09:30:11;;;;;;;;;;;-0.70;99.90;;;;;;5056138;28;19913;-80
2022/12/19 09:32:37;;;;;;;;;;;-0.70;99.90;;;;;;5056352;28;19909;-80
2022/12/19 09:35:03;;;;;;;;;;;-0.50;99.90;;;;;;5056727;28;19916;-80
2022/12/19 09:37:29;;;;;;;;;;;-0.50;99.90;;;;;;5058511;28;19913;-80
2022/12/19 09:39:55;;;;;;;;;;;-0.40;99.90;;;;;;5056368;28;19935;-81
2022/12/19 09:42:29;;;;;;;;;;;-0.30;99.90;;;;;;5057031;28;19908;-81
2022/12/19 09:45:04;;;;;;;;;;;-0.20;99.90;;;;;;5054976;28;20007;-80
2022/12/19 09:47:31;;;;;;;;;;;-0.10;99.90;;;;;;5056613;28;20008;-81
2022/12/19 09:49:57;;;;;;;;;;;-0.10;99.90;;;;;;5054786;28;19909;-80
2022/12/19 09:52:37;;;;;;;;;;;0.00;99.90;;;;;;5056488;28;20352;-81
2022/12/19 09:55:15;;;;;;;;;;;0.10;99.90;;;;;;5055142;28;19915;-81
2022/12/19 09:57:42;;;;;;;;;;;0.20;99.90;;;;;;5054454;28;20242;-81
2022/12/19 10:00:12;;;;;;;;;;;0.20;99.90;;;;;;5053344;28;19909;-81
2022/12/19 10:02:43;;;;;;;;;;;0.20;99.90;;;;;;5058526;28;19909;-81
2022/12/19 10:05:12;;;;;;;;;;;0.20;99.90;;;;;;5058921;28;19935;-81
2022/12/19 10:07:38;;;;;;;;;;;0.20;99.90;;;;;;5058069;28;19909;-81
2022/12/19 10:10:03;;;;;;;;;;;0.30;99.90;;;;;;5057470;28;20004;-81
2022/12/19 10:12:42;;;;;;;;;;;0.30;99.90;;;;;;5056492;28;19913;-80
2022/12/19 10:15:34;;;;;;;;;;;0.40;99.90;;;;;;5074614;28;19909;-81
2022/12/19 10:18:08;;;;;;;;;;;0.40;99.90;;;;;;5073241;28;19909;-81
2022/12/19 10:20:37;;;;;;;;;;;0.50;99.90;;;;;;5056934;28;19917;-81
2022/12/19 10:23:02;;;;;;;;;;;0.50;99.90;;;;;;5056788;28;20323;-81
2022/12/19 10:25:49;;;;;;;;;;;0.60;99.90;;;;;;5057908;28;19912;-81
2022/12/19 10:28:47;;;;;;;;;;;0.70;99.90;;;;;;5055372;28;19909;-81
2022/12/19 10:31:21;;;;;;;;;;;0.70;99.90;;;;;;5053240;28;19924;-81
2022/12/19 10:33:50;;;;;;;;;;;0.80;99.90;;;;;;5054407;28;19916;-81
2022/12/19 10:36:15;;;;;;;;;;;0.80;99.90;;;;;;5056886;28;20271;-81
2022/12/19 10:38:57;;;;;;;;;;;0.80;99.90;;;;;;5056516;28;20038;-81
2022/12/19 10:41:23;;;;;;;;;;;0.90;99.90;;;;;;5054432;28;20055;-81
2022/12/19 10:43:58;;;;;;;;;;;0.90;99.90;;;;;;5051926;28;20353;-81
2022/12/19 10:46:27;;;;;;;;;;;1.00;99.90;;;;;;5052136;28;19916;-81
2022/12/19 10:48:52;;;;;;;;;;;1.00;99.90;;;;;;5054373;28;19987;-81
2022/12/19 10:51:22;;;;;;;;;;;1.10;99.90;;;;;;5055501;28;19920;-81
2022/12/19 10:53:55;;;;;;;;;;;1.10;99.90;;;;;;5053064;28;19955;-81
2022/12/19 10:56:26;;;;;;;;;;;1.20;99.90;;;;;;5055936;28;19913;-81
2022/12/19 10:58:57;;;;;;;;;;;1.20;99.90;;;;;;5056219;28;19912;-81
2022/12/19 11:01:26;;;;;;;;;;;1.30;99.90;;;;;;5038698;28;20007;-81
2022/12/19 11:04:10;;;;;;;;;;;1.30;99.90;;;;;;5054132;28;19913;-81
2022/12/19 11:06:36;;;;;;;;;;;1.30;99.90;;;;;;5055791;28;19909;-81
2022/12/19 11:09:17;;;;;;;;;;;1.40;99.90;;;;;;5052731;28;19974;-81
2022/12/19 11:11:42;;;;;;;;;;;1.40;99.90;;;;;;5044775;22;19936;-67
2022/12/19 11:14:27;;;;;;;;;;;1.50;99.90;;;;;;5033662;28;19913;-67
2022/12/19 11:16:53;;;;;;;;;;;1.50;99.90;;;;;;5033573;28;19909;-67
2022/12/19 11:19:25;;;;;;;;;;;1.60;99.90;;;;;;5033797;28;19993;-68
2022/12/19 11:21:50;;;;;;;;;;;1.60;99.90;;;;;;5033483;28;20428;-68
2022/12/19 11:24:22;;;;;;;;;;;1.70;99.90;;;;;;5034030;28;20016;-67
2022/12/19 11:26:48;;;;;;;;;;;1.80;99.90;;;;;;5033464;28;19977;-67
2022/12/19 11:29:33;;;;;;;;;;;1.80;99.90;;;;;;5033410;28;19921;-67
2022/12/19 11:31:59;;;;;;;;;;;1.90;99.90;;;;;;5033688;28;19909;-67
2022/12/19 11:34:26;;;;;;;;;;;1.90;99.90;;;;;;5033382;28;19913;-67
2022/12/19 11:37:10;;;;;;;;;;;1.90;99.90;;;;;;5033381;28;19909;-67
2022/12/19 11:39:40;;;;;;;;;;;1.90;99.90;;;;;;5033269;28;19931;-67
2022/12/19 11:42:12;;;;;;;;;;;1.90;99.90;;;;;;5034043;28;20277;-67
2022/12/19 11:44:43;;;;;;;;;;;1.90;99.90;;;;;;5033445;28;19935;-68
2022/12/19 11:47:15;;;;;;;;;;;1.90;99.90;;;;;;5033308;28;19999;-68
2022/12/19 11:49:43;;;;;;;;;;;1.90;99.90;;;;;;5033168;28;19917;-68
2022/12/19 11:52:15;;;;;;;;;;;1.90;99.90;;;;;;5033101;28;19909;-68
2022/12/19 11:55:01;;;;;;;;;;;1.90;99.90;;;;;;5033103;28;20004;-68
2022/12/19 11:57:27;;;;;;;;;;;1.90;99.90;;;;;;5032896;28;19909;-68
2022/12/19 11:59:53;;;;;;;;;;;1.90;99.90;;;;;;5033223;28;20369;-68
2022/12/19 12:02:37;;;;;;;;;;;1.90;99.90;;;;;;5032972;28;19909;-68
2022/12/19 12:05:07;;;;;;;;;;;1.90;99.90;;;;;;5032969;28;19924;-68
2022/12/19 12:07:37;;;;;;;;;;;2.00;99.90;;;;;;5032931;28;20379;-68
2022/12/19 12:10:05;;;;;;;;;;;1.90;99.90;;;;;;4963250;28;2009692;-69
2022/12/19 12:12:31;;;;;;;;;;;2.00;99.90;;;;;;5033717;28;19911;-68
2022/12/19 12:15:08;;;;;;;;;;;2.00;99.90;;;;;;5033698;28;20000;-68
2022/12/19 12:17:41;;;;;;;;;;;2.00;99.90;;;;;;5033642;28;19909;-68
2022/12/19 12:20:10;;;;;;;;;;;2.00;99.90;;;;;;5034199;28;19916;-69
2022/12/19 12:22:52;;;;;;;;;;;2.00;99.90;;;;;;5033541;28;19909;-68
2022/12/19 12:25:20;;;;;;;;;;;2.00;99.90;;;;;;5032932;28;19917;-69
2022/12/19 12:27:58;;;;;;;;;;;2.00;99.90;;;;;;5013808;28;20385;-68
2022/12/19 12:30:23;;;;;;;;;;;2.00;99.90;;;;;;5019331;28;19967;-68
2022/12/19 12:33:07;;;;;;;;;;;2.00;99.90;;;;;;5033453;28;20284;-68
2022/12/19 12:35:40;;;;;;;;;;;2.00;99.90;;;;;;5032201;28;20416;-68
2022/12/19 12:38:05;;;;;;;;;;;2.10;99.90;;;;;;5033453;28;19956;-68
2022/12/19 12:40:44;;;;;;;;;;;2.10;99.90;;;;;;5033465;28;19913;-69
2022/12/19 12:43:16;;;;;;;;;;;2.10;99.90;;;;;;5033737;28;19909;-68
2022/12/19 12:45:43;;;;;;;;;;;2.20;99.90;;;;;;5033330;28;19917;-68
2022/12/19 12:48:12;;;;;;;;;;;2.20;99.90;;;;;;5032248;28;19956;-68
2022/12/19 12:50:40;;;;;;;;;;;2.30;99.90;;;;;;5033329;28;19916;-68
2022/12/19 12:53:08;;;;;;;;;;;2.30;99.90;;;;;;5036152;28;20064;-69
2022/12/19 12:55:42;;;;;;;;;;;2.30;99.90;;;;;;5037613;28;19957;-68
2022/12/19 12:58:26;;;;;;;;;;;2.30;99.90;;;;;;5037033;28;19909;-69
2022/12/19 13:01:06;;;;;;;;;;;2.40;99.90;;;;;;5036906;28;20379;-68
2022/12/19 13:03:32;;;;;;;;;;;2.40;99.90;;;;;;5037211;28;19916;-68
2022/12/19 13:06:00;;;;;;;;;;;2.40;99.90;;;;;;5037059;28;19921;-68
2022/12/19 13:08:37;;;;;;;;;;;2.40;99.90;;;;;;5036566;28;19957;-69
2022/12/19 13:12:58;;;;;;;;;;;2.40;99.90;;;;;;5036565;28;19921;-68
2022/12/19 13:13:57;;;;;;;;;;;2.40;99.90;;;;;;5036505;28;19909;-68
2022/12/19 13:16:41;;;;;;;;;;;2.40;99.90;;;;;;5036624;28;19963;-68
2022/12/19 13:19:15;;;;;;;;;;;2.50;99.90;;;;;;5036805;28;19948;-68
2022/12/19 13:21:59;;;;;;;;;;;2.50;99.90;;;;;;5037107;28;20007;-68
2022/12/19 13:24:24;;;;;;;;;;;2.50;99.90;;;;;;5036424;28;20385;-68
2022/12/19 13:26:51;;;;;;;;;;;2.50;99.90;;;;;;5036468;28;20012;-68
2022/12/19 13:29:27;;;;;;;;;;;2.50;99.90;;;;;;5036567;28;20004;-68
2022/12/19 13:32:06;;;;;;;;;;;2.40;99.90;;;;;;5035813;28;19940;-69
2022/12/19 13:34:35;;;;;;;;;;;2.40;99.90;;;;;;5036296;28;19910;-69
2022/12/19 13:37:06;;;;;;;;;;;2.40;99.90;;;;;;5036277;28;19910;-68
2022/12/19 13:39:42;;;;;;;;;;;2.40;99.90;;;;;;5036134;28;20000;-68
2022/12/19 13:45:01;;;;;;;;;;;2.30;99.90;;;;;;5036370;28;19971;-68
2022/12/19 13:47:38;;;;;;;;;;;2.30;99.90;;;;;;5035917;28;19909;-69
2022/12/19 13:50:05;;;;;;;;;;;2.30;99.90;;;;;;5035998;28;19909;-68
2022/12/19 13:52:31;;;;;;;;;;;2.20;99.90;;;;;;5035951;28;20297;-68
2022/12/19 13:54:58;;;;;;;;;;;2.20;99.90;;;;;;5035972;28;19914;-69
2022/12/19 13:57:25;;;;;;;;;;;2.10;99.90;;;;;;5036167;28;19999;-69
2022/12/19 13:59:52;;;;;;;;;;;2.10;99.90;;;;;;5035778;28;20327;-69
2022/12/19 14:02:31;;;;;;;;;;;2.10;99.90;;;;;;5036065;28;19909;-69
2022/12/19 14:04:57;;;;;;;;;;;2.10;99.90;;;;;;5034551;28;20058;-69
2022/12/19 14:07:36;;;;;;;;;;;2.10;99.90;;;;;;5035644;28;19944;-68
2022/12/19 14:10:04;;;;;;;;;;;2.00;99.90;;;;;;5034944;28;19913;-68
2022/12/19 14:15:33;;;;;;;;;;;2.00;99.90;;;;;;5028570;28;20306;-69
2022/12/19 14:18:00;;;;;;;;;;;2.00;99.90;;;;;;5035800;28;20357;-68
2022/12/19 14:20:26;;;;;;;;;;;2.00;99.90;;;;;;5035881;28;19959;-70
2022/12/19 14:22:55;;;;;;;;;;;2.00;99.90;;;;;;5035437;28;19952;-71
2022/12/19 14:25:22;;;;;;;;;;;2.00;99.90;;;;;;5035298;28;19940;-71
2022/12/19 14:27:50;;;;;;;;;;;2.00;99.90;;;;;;5035320;28;19914;-71
2022/12/19 14:30:20;;;;;;;;;;;1.90;99.90;;;;;;5035789;28;19992;-71
2022/12/19 14:32:47;;;;;;;;;;;1.90;99.90;;;;;;5035127;28;19919;-71
2022/12/19 14:35:25;;;;;;;;;;;1.80;99.90;;;;;;5035134;28;19913;-71
2022/12/19 14:38:04;;;;;;;;;;;1.80;99.90;;;;;;5035451;28;19917;-71
2022/12/19 14:40:31;;;;;;;;;;;1.80;99.90;;;;;;5033977;28;19916;-71
2022/12/19 14:45:45;;;;;;;;;;;1.70;99.90;;;;;;5034915;28;19928;-71